sensor_id;sensor_type;location;lat;lon;timestamp;pressure;altitude;pressure_sealevel;temperature;humidity
61136;BME280;47021;51.340;12.432;2023-02-01T00:01:15;100043.97;;;7.60;66.08
61136;BME280;47021;51.340;12.432;2023-02-01T00:03:42;100046.13;;;7.42;66.73
61136;BME280;47021;51.340;12.432;2023-02-01T00:06:09;100043.75;;;7.27;66.47
61136;BME280;47021;51.340;12.432;2023-02-01T00:08:34;100037.44;;;7.54;65.62
61136;BME280;47021;51.340;12.432;2023-02-01T00:11:08;100033.47;;;7.38;66.25
61136;BME280;47021;51.340;12.432;2023-02-01T00:13:36;100033.38;;;7.27;65.83
61136;BME280;47021;51.340;12.432;2023-02-01T00:16:14;100038.56;;;7.27;65.95
61136;BME280;47021;51.340;12.432;2023-02-01T00:18:47;100039.19;;;7.30;65.69
61136;BME280;47021;51.340;12.432;2023-02-01T00:21:16;100035.03;;;7.28;65.65
61136;BME280;47021;51.340;12.432;2023-02-01T00:23:41;100033.53;;;7.49;64.88
61136;BME280;47021;51.340;12.432;2023-02-01T00:26:08;100040.31;;;7.39;65.31
61136;BME280;47021;51.340;12.432;2023-02-01T00:28:39;100035.06;;;7.15;65.59
61136;BME280;47021;51.340;12.432;2023-02-01T00:31:06;100031.22;;;7.21;65.34
61136;BME280;47021;51.340;12.432;2023-02-01T00:33:32;100042.78;;;7.04;65.84
61136;BME280;47021;51.340;12.432;2023-02-01T00:35:58;100046.22;;;7.41;65.01
61136;BME280;47021;51.340;12.432;2023-02-01T00:46:19;100056.47;;;7.06;64.88
61136;BME280;47021;51.340;12.432;2023-02-01T00:48:44;100053.81;;;6.95;65.16
61136;BME280;47021;51.340;12.432;2023-02-01T00:51:16;100039.00;;;7.21;64.40
61136;BME280;47021;51.340;12.432;2023-02-01T00:53:47;100041.25;;;7.38;63.28
61136;BME280;47021;51.340;12.432;2023-02-01T00:56:14;100044.75;;;7.49;63.07
61136;BME280;47021;51.340;12.432;2023-02-01T00:58:39;100043.28;;;7.45;63.37
61136;BME280;47021;51.340;12.432;2023-02-01T01:03:40;100043.41;;;6.95;65.27
61136;BME280;47021;51.340;12.432;2023-02-01T01:14:41;100039.63;;;7.24;63.26
61136;BME280;47021;51.340;12.432;2023-02-01T01:17:14;100043.09;;;7.36;63.24
61136;BME280;47021;51.340;12.432;2023-02-01T01:28:03;100039.31;;;7.29;63.51
61136;BME280;47021;51.340;12.432;2023-02-01T01:30:30;100040.28;;;7.51;63.95
61136;BME280;47021;51.340;12.432;2023-02-01T01:32:56;100017.88;;;7.38;64.50
61136;BME280;47021;51.340;12.432;2023-02-01T01:35:21;100029.59;;;7.67;63.83
61136;BME280;47021;51.340;12.432;2023-02-01T01:37:48;100024.19;;;7.46;64.44
61136;BME280;47021;51.340;12.432;2023-02-01T01:40:16;100016.53;;;7.32;64.68
61136;BME280;47021;51.340;12.432;2023-02-01T01:42:43;100021.41;;;7.37;64.79
61136;BME280;47021;51.340;12.432;2023-02-01T01:45:23;100019.00;;;7.34;64.48
61136;BME280;47021;51.340;12.432;2023-02-01T01:47:54;100012.34;;;7.42;64.73
61136;BME280;47021;51.340;12.432;2023-02-01T01:50:28;100007.59;;;7.60;63.90
61136;BME280;47021;51.340;12.432;2023-02-01T01:53:03;100004.53;;;7.66;63.46
61136;BME280;47021;51.340;12.432;2023-02-01T01:55:38;99998.56;;;7.76;63.35
61136;BME280;47021;51.340;12.432;2023-02-01T01:58:18;99998.66;;;7.75;63.37
61136;BME280;47021;51.340;12.432;2023-02-01T02:00:44;99994.16;;;7.66;63.44
61136;BME280;47021;51.340;12.432;2023-02-01T02:06:16;99996.31;;;7.72;63.23
61136;BME280;47021;51.340;12.432;2023-02-01T02:08:45;99983.44;;;7.81;62.91
61136;BME280;47021;51.340;12.432;2023-02-01T02:11:12;99986.38;;;7.77;63.11
61136;BME280;47021;51.340;12.432;2023-02-01T02:13:41;99979.06;;;7.47;63.73
61136;BME280;47021;51.340;12.432;2023-02-01T02:16:19;99967.16;;;7.21;64.48
61136;BME280;47021;51.340;12.432;2023-02-01T02:21:18;99962.38;;;7.15;64.42
61136;BME280;47021;51.340;12.432;2023-02-01T02:37:02;99970.00;;;7.29;63.70
61136;BME280;47021;51.340;12.432;2023-02-01T02:42:37;99972.84;;;7.61;63.10
61136;BME280;47021;51.340;12.432;2023-02-01T02:47:28;99959.78;;;7.39;63.41
61136;BME280;47021;51.340;12.432;2023-02-01T02:55:26;99965.53;;;7.90;61.70
61136;BME280;47021;51.340;12.432;2023-02-01T02:57:53;99970.88;;;7.64;62.57
61136;BME280;47021;51.340;12.432;2023-02-01T03:00:21;99979.59;;;7.29;63.43
61136;BME280;47021;51.340;12.432;2023-02-01T03:02:53;99960.63;;;7.39;63.41
61136;BME280;47021;51.340;12.432;2023-02-01T03:05:21;99962.09;;;7.54;62.78
61136;BME280;47021;51.340;12.432;2023-02-01T03:08:08;99953.75;;;7.62;62.51
61136;BME280;47021;51.340;12.432;2023-02-01T03:13:55;99952.94;;;7.72;62.63
61136;BME280;47021;51.340;12.432;2023-02-01T03:23:53;99960.00;;;7.36;63.28
61136;BME280;47021;51.340;12.432;2023-02-01T03:26:23;99942.81;;;7.46;63.33
61136;BME280;47021;51.340;12.432;2023-02-01T03:28:54;99950.81;;;7.66;62.15
61136;BME280;47021;51.340;12.432;2023-02-01T03:31:33;99939.19;;;7.25;63.38
61136;BME280;47021;51.340;12.432;2023-02-01T03:34:06;99935.78;;;7.59;62.52
61136;BME280;47021;51.340;12.432;2023-02-01T03:36:46;99935.94;;;7.68;62.00
61136;BME280;47021;51.340;12.432;2023-02-01T03:47:36;99915.00;;;7.59;61.82
61136;BME280;47021;51.340;12.432;2023-02-01T03:50:07;99919.41;;;7.35;62.94
61136;BME280;47021;51.340;12.432;2023-02-01T03:52:37;99927.41;;;7.32;63.12
61136;BME280;47021;51.340;12.432;2023-02-01T03:55:06;99926.59;;;7.66;62.07
61136;BME280;47021;51.340;12.432;2023-02-01T03:57:34;99906.16;;;7.72;61.77
61136;BME280;47021;51.340;12.432;2023-02-01T04:00:09;99904.41;;;7.38;62.49
61136;BME280;47021;51.340;12.432;2023-02-01T04:02:34;99914.78;;;7.73;61.51
61136;BME280;47021;51.340;12.432;2023-02-01T04:05:02;99911.72;;;7.68;61.51
61136;BME280;47021;51.340;12.432;2023-02-01T04:07:27;99904.72;;;7.57;62.00
61136;BME280;47021;51.340;12.432;2023-02-01T04:09:53;99900.47;;;7.56;61.67
61136;BME280;47021;51.340;12.432;2023-02-01T04:12:21;99911.13;;;7.64;61.57
61136;BME280;47021;51.340;12.432;2023-02-01T04:14:53;99906.84;;;7.63;61.32
61136;BME280;47021;51.340;12.432;2023-02-01T04:17:24;99896.25;;;7.66;61.36
61136;BME280;47021;51.340;12.432;2023-02-01T04:20:03;99886.91;;;7.64;61.52
61136;BME280;47021;51.340;12.432;2023-02-01T04:22:28;99895.72;;;7.96;60.70
61136;BME280;47021;51.340;12.432;2023-02-01T04:24:56;99875.94;;;7.71;61.12
61136;BME280;47021;51.340;12.432;2023-02-01T04:27:29;99871.44;;;7.62;61.83
61136;BME280;47021;51.340;12.432;2023-02-01T04:30:07;99859.88;;;7.77;60.96
61136;BME280;47021;51.340;12.432;2023-02-01T04:32:33;99872.19;;;7.87;60.89
61136;BME280;47021;51.340;12.432;2023-02-01T04:34:58;99879.09;;;7.53;61.33
61136;BME280;47021;51.340;12.432;2023-02-01T04:37:24;99868.09;;;7.49;61.31
61136;BME280;47021;51.340;12.432;2023-02-01T04:39:55;99868.56;;;7.54;61.23
61136;BME280;47021;51.340;12.432;2023-02-01T04:42:21;99863.91;;;7.81;60.47
61136;BME280;47021;51.340;12.432;2023-02-01T04:44:47;99867.13;;;7.39;61.95
61136;BME280;47021;51.340;12.432;2023-02-01T04:47:15;99858.09;;;7.67;60.73
61136;BME280;47021;51.340;12.432;2023-02-01T04:49:41;99865.16;;;7.54;61.02
61136;BME280;47021;51.340;12.432;2023-02-01T04:52:09;99866.19;;;7.86;60.67
61136;BME280;47021;51.340;12.432;2023-02-01T04:54:46;99856.13;;;7.36;61.58
61136;BME280;47021;51.340;12.432;2023-02-01T04:57:17;99870.75;;;7.82;60.93
61136;BME280;47021;51.340;12.432;2023-02-01T04:59:43;99870.22;;;7.44;61.07
61136;BME280;47021;51.340;12.432;2023-02-01T05:02:08;99859.13;;;7.53;60.81
61136;BME280;47021;51.340;12.432;2023-02-01T05:04:33;99862.84;;;7.84;60.38
61136;BME280;47021;51.340;12.432;2023-02-01T05:06:58;99855.03;;;7.73;60.68
61136;BME280;47021;51.340;12.432;2023-02-01T05:09:24;99870.59;;;7.51;60.53
61136;BME280;47021;51.340;12.432;2023-02-01T05:11:50;99867.78;;;7.65;61.02
61136;BME280;47021;51.340;12.432;2023-02-01T05:14:16;99860.69;;;7.67;60.69
61136;BME280;47021;51.340;12.432;2023-02-01T05:16:41;99867.00;;;7.41;61.43
61136;BME280;47021;51.340;12.432;2023-02-01T05:19:09;99842.13;;;7.49;61.69
61136;BME280;47021;51.340;12.432;2023-02-01T05:21:34;99862.84;;;7.84;60.55
61136;BME280;47021;51.340;12.432;2023-02-01T05:24:09;99852.38;;;7.40;61.94
61136;BME280;47021;51.340;12.432;2023-02-01T05:26:41;99846.50;;;7.49;61.44
61136;BME280;47021;51.340;12.432;2023-02-01T05:29:11;99848.81;;;7.41;62.16
61136;BME280;47021;51.340;12.432;2023-02-01T05:31:39;99850.13;;;7.35;61.92
61136;BME280;47021;51.340;12.432;2023-02-01T05:34:04;99838.25;;;7.66;61.89
61136;BME280;47021;51.340;12.432;2023-02-01T05:36:41;99838.50;;;7.74;61.26
61136;BME280;47021;51.340;12.432;2023-02-01T05:41:39;99839.88;;;7.45;62.53
61136;BME280;47021;51.340;12.432;2023-02-01T05:44:10;99835.16;;;7.50;62.76
61136;BME280;47021;51.340;12.432;2023-02-01T05:46:38;99836.88;;;7.38;62.90
61136;BME280;47021;51.340;12.432;2023-02-01T05:49:03;99835.66;;;7.77;61.83
61136;BME280;47021;51.340;12.432;2023-02-01T05:51:29;99860.69;;;7.21;62.63
61136;BME280;47021;51.340;12.432;2023-02-01T05:53:55;99835.63;;;7.44;62.90
61136;BME280;47021;51.340;12.432;2023-02-01T05:56:21;99838.00;;;7.12;63.95
61136;BME280;47021;51.340;12.432;2023-02-01T05:58:47;99841.84;;;7.30;63.29
61136;BME280;47021;51.340;12.432;2023-02-01T06:01:15;99835.31;;;7.81;62.25
61136;BME280;47021;51.340;12.432;2023-02-01T06:03:40;99821.59;;;7.57;62.56
61136;BME280;47021;51.340;12.432;2023-02-01T06:06:05;99825.59;;;7.50;62.66
61136;BME280;47021;51.340;12.432;2023-02-01T06:08:37;99833.31;;;7.63;62.44
61136;BME280;47021;51.340;12.432;2023-02-01T06:11:13;99827.47;;;7.37;63.32
61136;BME280;47021;51.340;12.432;2023-02-01T06:13:38;99838.91;;;7.46;63.22
61136;BME280;47021;51.340;12.432;2023-02-01T06:16:09;99822.31;;;7.70;62.33
61136;BME280;47021;51.340;12.432;2023-02-01T06:18:40;99825.50;;;7.63;62.53
61136;BME280;47021;51.340;12.432;2023-02-01T06:21:06;99834.09;;;7.52;63.09
61136;BME280;47021;51.340;12.432;2023-02-01T06:23:33;99827.28;;;7.84;61.87
61136;BME280;47021;51.340;12.432;2023-02-01T06:26:03;99814.91;;;7.88;61.87
61136;BME280;47021;51.340;12.432;2023-02-01T06:28:31;99804.97;;;8.26;60.84
61136;BME280;47021;51.340;12.432;2023-02-01T06:31:08;99821.03;;;7.87;61.76
61136;BME280;47021;51.340;12.432;2023-02-01T06:44:31;99799.28;;;7.77;62.33
61136;BME280;47021;51.340;12.432;2023-02-01T06:46:56;99806.00;;;7.57;62.04
61136;BME280;47021;51.340;12.432;2023-02-01T06:49:21;99785.47;;;7.65;62.07
61136;BME280;47021;51.340;12.432;2023-02-01T06:51:49;99790.19;;;7.94;61.47
61136;BME280;47021;51.340;12.432;2023-02-01T06:54:22;99791.03;;;7.83;61.68
61136;BME280;47021;51.340;12.432;2023-02-01T06:59:32;99775.22;;;7.86;61.68
61136;BME280;47021;51.340;12.432;2023-02-01T07:01:57;99792.78;;;7.82;61.90
61136;BME280;47021;51.340;12.432;2023-02-01T07:04:40;99792.66;;;7.73;62.27
61136;BME280;47021;51.340;12.432;2023-02-01T07:07:12;99789.84;;;7.76;61.83
61136;BME280;47021;51.340;12.432;2023-02-01T07:09:49;99787.25;;;7.87;61.20
61136;BME280;47021;51.340;12.432;2023-02-01T07:12:15;99796.31;;;7.59;62.15
61136;BME280;47021;51.340;12.432;2023-02-01T07:17:24;99784.66;;;7.76;61.42
61136;BME280;47021;51.340;12.432;2023-02-01T07:22:40;99786.13;;;8.45;59.90
61136;BME280;47021;51.340;12.432;2023-02-01T07:25:11;99782.72;;;8.22;60.36
61136;BME280;47021;51.340;12.432;2023-02-01T07:27:47;99780.16;;;7.78;61.63
61136;BME280;47021;51.340;12.432;2023-02-01T07:30:27;99787.09;;;8.22;60.49
61136;BME280;47021;51.340;12.432;2023-02-01T07:33:06;99785.44;;;8.10;60.29
61136;BME280;47021;51.340;12.432;2023-02-01T07:35:47;99778.69;;;8.18;60.35
61136;BME280;47021;51.340;12.432;2023-02-01T07:38:20;99775.38;;;8.16;60.70
61136;BME280;47021;51.340;12.432;2023-02-01T07:43:29;99767.16;;;7.78;61.33
61136;BME280;47021;51.340;12.432;2023-02-01T07:45:55;99773.03;;;8.35;60.09
61136;BME280;47021;51.340;12.432;2023-02-01T07:48:21;99765.25;;;8.67;58.51
61136;BME280;47021;51.340;12.432;2023-02-01T07:50:48;99766.91;;;8.36;59.51
61136;BME280;47021;51.340;12.432;2023-02-01T07:53:14;99768.53;;;8.37;59.14
61136;BME280;47021;51.340;12.432;2023-02-01T07:55:40;99762.44;;;8.59;58.83
61136;BME280;47021;51.340;12.432;2023-02-01T07:58:11;99754.28;;;8.64;58.76
61136;BME280;47021;51.340;12.432;2023-02-01T08:00:49;99759.66;;;8.72;58.62
61136;BME280;47021;51.340;12.432;2023-02-01T08:03:15;99759.31;;;8.22;60.22
61136;BME280;47021;51.340;12.432;2023-02-01T08:05:46;99764.66;;;7.99;61.08
61136;BME280;47021;51.340;12.432;2023-02-01T08:08:19;99772.31;;;8.22;60.56
61136;BME280;47021;51.340;12.432;2023-02-01T08:10:45;99792.22;;;7.79;61.53
61136;BME280;47021;51.340;12.432;2023-02-01T08:13:10;99793.59;;;8.05;60.89
61136;BME280;47021;51.340;12.432;2023-02-01T08:15:35;99776.47;;;8.36;60.37
61136;BME280;47021;51.340;12.432;2023-02-01T08:18:11;99791.09;;;8.37;60.56
61136;BME280;47021;51.340;12.432;2023-02-01T08:20:44;99796.44;;;8.35;60.64
61136;BME280;47021;51.340;12.432;2023-02-01T08:25:53;99790.41;;;8.13;61.41
61136;BME280;47021;51.340;12.432;2023-02-01T08:28:20;99764.78;;;7.97;62.17
61136;BME280;47021;51.340;12.432;2023-02-01T08:30:53;99758.78;;;8.50;60.64
61136;BME280;47021;51.340;12.432;2023-02-01T08:33:24;99785.94;;;8.04;62.69
61136;BME280;47021;51.340;12.432;2023-02-01T08:35:51;99809.34;;;7.93;63.86
61136;BME280;47021;51.340;12.432;2023-02-01T08:38:17;99774.03;;;7.79;64.67
61136;BME280;47021;51.340;12.432;2023-02-01T08:43:27;99802.00;;;7.64;65.97
61136;BME280;47021;51.340;12.432;2023-02-01T08:48:51;99785.69;;;7.84;66.65
61136;BME280;47021;51.340;12.432;2023-02-01T08:51:31;99789.59;;;8.01;67.08
61136;BME280;47021;51.340;12.432;2023-02-01T08:53:56;99790.25;;;7.37;69.08
61136;BME280;47021;51.340;12.432;2023-02-01T08:56:24;99814.84;;;7.09;69.94
61136;BME280;47021;51.340;12.432;2023-02-01T09:01:45;99819.34;;;7.07;70.23
61136;BME280;47021;51.340;12.432;2023-02-01T09:04:18;99819.00;;;7.11;71.09
61136;BME280;47021;51.340;12.432;2023-02-01T09:06:44;99826.00;;;6.87;71.70
61136;BME280;47021;51.340;12.432;2023-02-01T09:09:12;99815.16;;;6.70;71.99
61136;BME280;47021;51.340;12.432;2023-02-01T09:11:50;99824.06;;;6.78;72.05
61136;BME280;47021;51.340;12.432;2023-02-01T09:14:17;99822.19;;;6.80;72.73
61136;BME280;47021;51.340;12.432;2023-02-01T09:16:56;99800.78;;;7.00;71.83
61136;BME280;47021;51.340;12.432;2023-02-01T09:19:33;99813.81;;;7.11;71.74
61136;BME280;47021;51.340;12.432;2023-02-01T09:24:44;99832.97;;;6.74;71.77
61136;BME280;47021;51.340;12.432;2023-02-01T09:27:15;99824.88;;;7.02;71.51
61136;BME280;47021;51.340;12.432;2023-02-01T09:29:42;99826.47;;;7.27;71.31
61136;BME280;47021;51.340;12.432;2023-02-01T09:32:08;99852.00;;;6.98;71.67
61136;BME280;47021;51.340;12.432;2023-02-01T09:34:34;99850.72;;;7.15;71.47
61136;BME280;47021;51.340;12.432;2023-02-01T09:36:59;99841.81;;;7.19;70.90
61136;BME280;47021;51.340;12.432;2023-02-01T09:39:38;99843.09;;;7.25;71.43
61136;BME280;47021;51.340;12.432;2023-02-01T09:47:20;99846.50;;;7.14;71.67
61136;BME280;47021;51.340;12.432;2023-02-01T09:52:20;99840.84;;;7.20;71.25
61136;BME280;47021;51.340;12.432;2023-02-01T09:55:06;99837.47;;;7.88;69.44
61136;BME280;47021;51.340;12.432;2023-02-01T09:57:44;99853.50;;;7.81;69.14
61136;BME280;47021;51.340;12.432;2023-02-01T10:00:19;99859.03;;;7.66;69.70
61136;BME280;47021;51.340;12.432;2023-02-01T10:02:45;99835.81;;;8.09;67.87
61136;BME280;47021;51.340;12.432;2023-02-01T10:08:01;99846.69;;;8.25;67.83
61136;BME280;47021;51.340;12.432;2023-02-01T10:10:34;99855.50;;;8.67;66.47
61136;BME280;47021;51.340;12.432;2023-02-01T10:26:51;99850.78;;;8.61;65.68
61136;BME280;47021;51.340;12.432;2023-02-01T10:32:08;99854.00;;;8.53;65.56
61136;BME280;47021;51.340;12.432;2023-02-01T10:34:37;99849.34;;;8.68;65.50
61136;BME280;47021;51.340;12.432;2023-02-01T10:39:47;99845.56;;;8.72;64.87
61136;BME280;47021;51.340;12.432;2023-02-01T10:42:14;99861.50;;;8.78;64.79
61136;BME280;47021;51.340;12.432;2023-02-01T10:44:40;99852.66;;;8.70;64.84
61136;BME280;47021;51.340;12.432;2023-02-01T10:47:09;99852.78;;;8.68;64.89
61136;BME280;47021;51.340;12.432;2023-02-01T10:52:15;99858.72;;;8.48;64.97
61136;BME280;47021;51.340;12.432;2023-02-01T10:54:41;99849.19;;;8.80;63.77
61136;BME280;47021;51.340;12.432;2023-02-01T10:57:22;99856.03;;;8.38;62.56
61136;BME280;47021;51.340;12.432;2023-02-01T10:59:49;99829.47;;;8.78;60.53
61136;BME280;47021;51.340;12.432;2023-02-01T11:02:33;99833.09;;;9.39;59.09
61136;BME280;47021;51.340;12.432;2023-02-01T11:05:17;99822.66;;;9.18;59.36
61136;BME280;47021;51.340;12.432;2023-02-01T11:10:39;99825.34;;;9.69;58.54
61136;BME280;47021;51.340;12.432;2023-02-01T11:13:15;99826.91;;;9.19;58.52
61136;BME280;47021;51.340;12.432;2023-02-01T11:15:45;99843.97;;;9.64;58.72
61136;BME280;47021;51.340;12.432;2023-02-01T11:18:28;99829.41;;;9.62;57.92
61136;BME280;47021;51.340;12.432;2023-02-01T11:20:59;99835.69;;;9.39;57.68
61136;BME280;47021;51.340;12.432;2023-02-01T11:23:31;99846.25;;;8.74;58.82
61136;BME280;47021;51.340;12.432;2023-02-01T11:31:32;99833.13;;;9.07;58.20
61136;BME280;47021;51.340;12.432;2023-02-01T11:34:18;99825.06;;;9.10;58.41
61136;BME280;47021;51.340;12.432;2023-02-01T11:36:46;99829.03;;;9.25;58.58
61136;BME280;47021;51.340;12.432;2023-02-01T11:39:30;99849.81;;;9.77;57.17
61136;BME280;47021;51.340;12.432;2023-02-01T11:42:00;99824.59;;;9.87;56.57
61136;BME280;47021;51.340;12.432;2023-02-01T11:44:33;99814.53;;;9.73;57.18
61136;BME280;47021;51.340;12.432;2023-02-01T11:49:44;99814.41;;;9.54;58.09
61136;BME280;47021;51.340;12.432;2023-02-01T11:57:42;99791.44;;;9.99;56.36
61136;BME280;47021;51.340;12.432;2023-02-01T12:18:57;99784.72;;;10.06;55.76
61136;BME280;47021;51.340;12.432;2023-02-01T12:21:15;99782.88;;;10.18;54.94
61136;BME280;47021;51.340;12.432;2023-02-01T12:26:23;99776.59;;;9.39;56.01
61136;BME280;47021;51.340;12.432;2023-02-01T12:32:12;99786.56;;;9.55;54.69
61136;BME280;47021;51.340;12.432;2023-02-01T12:47:21;99754.59;;;9.83;53.17
61136;BME280;47021;51.340;12.432;2023-02-01T12:50:05;99771.28;;;10.01;53.00
61136;BME280;47021;51.340;12.432;2023-02-01T12:52:42;99760.59;;;9.44;52.79
61136;BME280;47021;51.340;12.432;2023-02-01T13:03:37;99791.34;;;9.50;51.81
61136;BME280;47021;51.340;12.432;2023-02-01T13:11:15;99741.47;;;9.64;51.73
61136;BME280;47021;51.340;12.432;2023-02-01T13:13:48;99724.41;;;9.50;51.86
61136;BME280;47021;51.340;12.432;2023-02-01T13:24:33;99731.13;;;9.92;52.05
61136;BME280;47021;51.340;12.432;2023-02-01T13:27:15;99716.50;;;10.01;52.08
61136;BME280;47021;51.340;12.432;2023-02-01T13:43:06;99709.47;;;9.52;51.94
61136;BME280;47021;51.340;12.432;2023-02-01T13:45:35;99701.50;;;9.44;51.43
61136;BME280;47021;51.340;12.432;2023-02-01T13:48:03;99689.06;;;9.57;51.59
61136;BME280;47021;51.340;12.432;2023-02-01T13:50:33;99691.03;;;10.24;50.51
61136;BME280;47021;51.340;12.432;2023-02-01T13:53:00;99711.63;;;9.77;51.02
61136;BME280;47021;51.340;12.432;2023-02-01T14:00:49;99693.00;;;9.91;52.37
61136;BME280;47021;51.340;12.432;2023-02-01T14:03:20;99677.78;;;10.06;52.63
61136;BME280;47021;51.340;12.432;2023-02-01T14:08:25;99666.59;;;10.15;53.70
61136;BME280;47021;51.340;12.432;2023-02-01T14:11:01;99682.66;;;10.39;53.11
61136;BME280;47021;51.340;12.432;2023-02-01T14:13:30;99668.47;;;10.13;54.34
61136;BME280;47021;51.340;12.432;2023-02-01T14:21:23;99658.19;;;10.50;53.68
61136;BME280;47021;51.340;12.432;2023-02-01T14:34:03;99619.69;;;10.71;53.50
61136;BME280;47021;51.340;12.432;2023-02-01T14:36:54;99612.13;;;10.68;53.24
61136;BME280;47021;51.340;12.432;2023-02-01T14:39:25;99611.59;;;10.84;53.17
61136;BME280;47021;51.340;12.432;2023-02-01T14:42:14;99606.56;;;10.34;54.34
61136;BME280;47021;51.340;12.432;2023-02-01T14:50:07;99613.19;;;10.29;54.24
61136;BME280;47021;51.340;12.432;2023-02-01T14:52:42;99605.94;;;9.64;55.66
61136;BME280;47021;51.340;12.432;2023-02-01T14:57:49;99606.47;;;9.67;55.10
61136;BME280;47021;51.340;12.432;2023-02-01T15:00:20;99605.50;;;9.59;54.98
61136;BME280;47021;51.340;12.432;2023-02-01T15:02:53;99605.16;;;9.82;54.99
61136;BME280;47021;51.340;12.432;2023-02-01T15:05:31;99591.84;;;9.95;54.75
61136;BME280;47021;51.340;12.432;2023-02-01T15:10:42;99607.06;;;9.71;56.01
61136;BME280;47021;51.340;12.432;2023-02-01T15:13:20;99592.94;;;9.92;56.81
61136;BME280;47021;51.340;12.432;2023-02-01T15:15:59;99568.75;;;9.03;58.08
61136;BME280;47021;51.340;12.432;2023-02-01T15:18:24;99563.56;;;9.22;58.23
61136;BME280;47021;51.340;12.432;2023-02-01T15:23:33;99574.75;;;9.03;58.41
61136;BME280;47021;51.340;12.432;2023-02-01T15:25:59;99580.06;;;9.32;58.23
61136;BME280;47021;51.340;12.432;2023-02-01T15:28:24;99547.00;;;9.23;58.29
61136;BME280;47021;51.340;12.432;2023-02-01T15:30:54;99533.31;;;8.91;59.16
61136;BME280;47021;51.340;12.432;2023-02-01T15:33:20;99550.31;;;9.25;57.68
61136;BME280;47021;51.340;12.432;2023-02-01T15:35:48;99563.16;;;9.17;58.81
61136;BME280;47021;51.340;12.432;2023-02-01T15:43:27;99566.47;;;8.59;61.49
61136;BME280;47021;51.340;12.432;2023-02-01T15:46:02;99557.22;;;8.45;61.40
61136;BME280;47021;51.340;12.432;2023-02-01T15:51:36;99557.00;;;8.88;59.14
61136;BME280;47021;51.340;12.432;2023-02-01T15:54:03;99568.59;;;9.04;59.01
61136;BME280;47021;51.340;12.432;2023-02-01T15:56:34;99554.31;;;8.99;59.57
61136;BME280;47021;51.340;12.432;2023-02-01T15:59:02;99578.44;;;9.01;60.17
61136;BME280;47021;51.340;12.432;2023-02-01T16:01:35;99576.16;;;8.57;61.26
61136;BME280;47021;51.340;12.432;2023-02-01T16:04:03;99650.56;;;8.16;63.98
61136;BME280;47021;51.340;12.432;2023-02-01T16:06:45;99719.50;;;7.11;70.19
61136;BME280;47021;51.340;12.432;2023-02-01T16:09:18;99750.09;;;5.14;73.99
61136;BME280;47021;51.340;12.432;2023-02-01T16:20:20;99720.53;;;4.53;77.25
61136;BME280;47021;51.340;12.432;2023-02-01T16:22:52;99742.09;;;4.40;77.52
61136;BME280;47021;51.340;12.432;2023-02-01T16:25:17;99713.00;;;4.63;76.74
61136;BME280;47021;51.340;12.432;2023-02-01T16:27:50;99709.97;;;5.08;75.72
61136;BME280;47021;51.340;12.432;2023-02-01T16:30:21;99716.06;;;5.20;74.95
61136;BME280;47021;51.340;12.432;2023-02-01T16:32:54;99714.22;;;5.22;75.05
61136;BME280;47021;51.340;12.432;2023-02-01T16:38:16;99723.41;;;4.88;75.63
61136;BME280;47021;51.340;12.432;2023-02-01T16:40:42;99724.97;;;5.03;74.85
61136;BME280;47021;51.340;12.432;2023-02-01T16:48:41;99704.06;;;5.06;74.47
61136;BME280;47021;51.340;12.432;2023-02-01T16:53:58;99711.81;;;4.93;75.28
61136;BME280;47021;51.340;12.432;2023-02-01T16:56:42;99740.78;;;5.11;74.12
61136;BME280;47021;51.340;12.432;2023-02-01T16:59:22;99727.16;;;5.22;74.12
61136;BME280;47021;51.340;12.432;2023-02-01T17:04:33;99710.19;;;5.18;74.34
61136;BME280;47021;51.340;12.432;2023-02-01T17:06:59;99732.53;;;5.06;74.82
61136;BME280;47021;51.340;12.432;2023-02-01T17:12:25;99748.44;;;5.00;74.64
61136;BME280;47021;51.340;12.432;2023-02-01T17:14:53;99736.06;;;5.18;73.20
61136;BME280;47021;51.340;12.432;2023-02-01T17:17:21;99732.13;;;5.25;74.12
61136;BME280;47021;51.340;12.432;2023-02-01T17:19:53;99724.31;;;5.62;73.33
61136;BME280;47021;51.340;12.432;2023-02-01T17:24:55;99723.00;;;5.19;73.61
61136;BME280;47021;51.340;12.432;2023-02-01T17:38:47;99719.69;;;5.17;72.93
61136;BME280;47021;51.340;12.432;2023-02-01T17:41:14;99730.75;;;5.19;73.68
61136;BME280;47021;51.340;12.432;2023-02-01T17:46:34;99733.16;;;5.22;73.42
61136;BME280;47021;51.340;12.432;2023-02-01T17:49:07;99733.97;;;5.35;73.04
61136;BME280;47021;51.340;12.432;2023-02-01T18:02:39;99745.88;;;5.63;71.52
61136;BME280;47021;51.340;12.432;2023-02-01T18:05:19;99743.59;;;5.46;71.71
61136;BME280;47021;51.340;12.432;2023-02-01T18:13:21;99770.09;;;5.87;70.65
61136;BME280;47021;51.340;12.432;2023-02-01T18:15:47;99761.59;;;5.60;72.27
61136;BME280;47021;51.340;12.432;2023-02-01T18:18:16;99768.53;;;5.72;71.51
61136;BME280;47021;51.340;12.432;2023-02-01T18:34:40;99759.91;;;5.97;70.85
61136;BME280;47021;51.340;12.432;2023-02-01T18:47:52;99774.66;;;5.58;72.07
61136;BME280;47021;51.340;12.432;2023-02-01T18:50:19;99770.63;;;5.80;71.94
61136;BME280;47021;51.340;12.432;2023-02-01T18:52:44;99771.44;;;5.55;72.62
61136;BME280;47021;51.340;12.432;2023-02-01T18:55:20;99787.19;;;5.39;72.03
61136;BME280;47021;51.340;12.432;2023-02-01T19:06:18;99769.59;;;5.44;72.58
61136;BME280;47021;51.340;12.432;2023-02-01T19:08:46;99766.59;;;5.63;72.10
61136;BME280;47021;51.340;12.432;2023-02-01T19:11:14;99764.41;;;5.44;72.57
61136;BME280;47021;51.340;12.432;2023-02-01T19:13:41;99772.78;;;5.60;71.83
61136;BME280;47021;51.340;12.432;2023-02-01T19:16:07;99772.59;;;5.63;72.13
61136;BME280;47021;51.340;12.432;2023-02-01T19:18:33;99773.53;;;5.88;70.91
61136;BME280;47021;51.340;12.432;2023-02-01T19:21:10;99779.41;;;5.77;71.00
61136;BME280;47021;51.340;12.432;2023-02-01T19:23:50;99794.03;;;5.40;72.25
61136;BME280;47021;51.340;12.432;2023-02-01T19:26:18;99787.28;;;5.63;71.50